Time;durP1;ratioP1;P1;durP2;ratioP2;P2;SDS_P1;SDS_P2;PMS_P1;PMS_P2;Temp;Humidity;BMP_temperature;BMP_pressure;BME280_temperature;BME280_humidity;BME280_pressure;Samples;Min_cycle;Max_cycle;Signal;HPM_P1;HPM_P2
2021/08/26 00:00:29;;;;;;;3.70;3.00;;;;;;;24.41;60.02;99891.44;4958183;28;20038;-72
2021/08/26 00:05:48;;;;;;;3.80;3.38;;;;;;;24.30;60.01;99876.81;4975631;28;20034;-72
2021/08/26 00:08:15;;;;;;;4.65;4.25;;;;;;;24.26;60.78;99881.84;4958304;28;20034;-71
2021/08/26 00:10:40;;;;;;;4.25;2.85;;;;;;;24.28;60.52;99867.94;4957973;28;20050;-72
2021/08/26 00:13:07;;;;;;;3.70;3.10;;;;;;;24.26;60.09;99861.94;4958176;28;20450;-72
2021/08/26 00:15:34;;;;;;;3.45;3.08;;;;;;;24.19;59.75;99865.84;4957926;28;20034;-72
2021/08/26 00:18:00;;;;;;;3.45;3.15;;;;;;;24.19;59.79;99859.38;4974785;28;20394;-72
2021/08/26 00:20:26;;;;;;;4.47;3.30;;;;;;;24.24;59.73;99861.63;4957655;28;20023;-73
2021/08/26 00:22:52;;;;;;;3.67;3.15;;;;;;;24.24;59.84;99864.47;4957493;28;20035;-73
2021/08/26 00:25:17;;;;;;;3.30;3.00;;;;;;;24.21;59.79;99869.00;4957465;28;20037;-70
2021/08/26 00:27:43;;;;;;;3.70;3.40;;;;;;;24.20;59.94;99873.13;4942031;28;20039;-70
2021/08/26 00:30:09;;;;;;;3.55;3.17;;;;;;;24.22;60.20;99866.94;4957338;28;20043;-71
2021/08/26 00:32:35;;;;;;;2.95;2.75;;;;;;;24.09;59.89;99869.09;4957291;28;20064;-74
2021/08/26 00:35:01;;;;;;;3.00;2.80;;;;;;;23.97;60.89;99862.19;4957403;28;20118;-74
2021/08/26 00:37:26;;;;;;;3.78;3.30;;;;;;;23.99;60.46;99849.13;4957318;28;20050;-73
2021/08/26 00:39:55;;;;;;;3.55;3.08;;;;;;;23.94;60.96;99855.41;4957221;28;20037;-73
2021/08/26 00:42:22;;;;;;;3.88;3.40;;;;;;;23.96;61.06;99855.72;4974925;28;20035;-73
2021/08/26 00:44:50;;;;;;;6.28;4.50;;;;;;;24.01;60.78;99860.81;4957251;28;20034;-72
2021/08/26 00:47:15;;;;;;;4.03;3.65;;;;;;;23.86;61.16;99864.66;4957233;28;20031;-73
2021/08/26 00:49:41;;;;;;;4.93;3.30;;;;;;;23.89;61.28;99869.41;4957806;28;20031;-72
2021/08/26 00:52:11;;;;;;;4.07;3.30;;;;;;;23.86;60.87;99865.44;4957462;28;20505;-72
2021/08/26 00:54:37;;;;;;;3.00;2.80;;;;;;;23.82;60.22;99858.31;4957152;28;20031;-72
2021/08/26 00:57:02;;;;;;;3.40;3.08;;;;;;;23.78;61.03;99853.56;4957700;28;20101;-75
2021/08/26 00:59:31;;;;;;;4.38;3.97;;;;;;;23.79;61.83;99862.88;4959120;28;20323;-73
2021/08/26 01:02:13;;;;;;;4.35;3.42;;;;;;;23.84;62.59;99873.63;4961043;28;20478;-73
2021/08/26 01:04:52;;;;;;;3.87;3.43;;;;;;;23.83;63.11;99869.22;4961306;28;20045;-74
2021/08/26 01:07:30;;;;;;;3.47;3.17;;;;;;;23.75;63.61;99859.34;4961521;28;20027;-73
2021/08/26 01:10:04;;;;;;;3.50;3.20;;;;;;;23.75;63.68;99863.00;4960940;28;20031;-74
2021/08/26 01:12:34;;;;;;;4.55;3.15;;;;;;;23.74;63.89;99852.09;4960818;28;20550;-73
2021/08/26 01:15:00;;;;;;;4.13;3.67;;;;;;;23.73;63.90;99867.56;4961156;28;20035;-73
2021/08/26 01:17:30;;;;;;;5.65;3.40;;;;;;;23.71;63.52;99844.50;4961115;28;20495;-73
2021/08/26 01:19:57;;;;;;;3.60;3.30;;;;;;;23.67;64.02;99841.00;4941466;29;20040;-73
2021/08/26 01:22:24;;;;;;;4.97;3.50;;;;;;;23.59;64.41;99845.31;4942371;29;20023;-73
2021/08/26 01:24:55;;;;;;;3.30;3.03;;;;;;;23.70;64.87;99863.59;4941491;29;20040;-73
2021/08/26 01:27:25;;;;;;;3.28;2.97;;;;;;;23.61;64.72;99869.16;4926171;29;20557;-73
2021/08/26 01:29:51;;;;;;;3.40;3.13;;;;;;;23.57;64.70;99856.34;4941456;29;20040;-73
2021/08/26 01:32:21;;;;;;;3.30;3.00;;;;;;;23.50;65.10;99848.88;4941124;29;20042;-73
2021/08/26 01:34:54;;;;;;;4.25;2.72;;;;;;;23.49;64.88;99848.09;4941648;29;20463;-74
2021/08/26 01:37:22;;;;;;;3.50;3.20;;;;;;;23.45;65.15;99832.44;4941338;29;20058;-73
2021/08/26 01:39:49;;;;;;;4.13;2.95;;;;;;;23.45;64.75;99823.91;4941207;29;20033;-73
2021/08/26 01:42:15;;;;;;;3.50;3.20;;;;;;;23.50;64.49;99826.97;4941174;29;20086;-71
2021/08/26 01:44:42;;;;;;;3.53;2.88;;;;;;;23.47;64.55;99813.66;4941176;29;20031;-73
2021/08/26 01:47:09;;;;;;;3.13;2.80;;;;;;;23.48;64.56;99820.94;4941122;29;20039;-72
2021/08/26 01:49:35;;;;;;;3.33;3.10;;;;;;;23.50;64.68;99807.09;4941075;29;20038;-72
2021/08/26 01:52:01;;;;;;;3.20;2.90;;;;;;;23.37;65.24;99812.00;4941186;29;20035;-72
2021/08/26 01:54:26;;;;;;;3.40;3.00;;;;;;;23.36;65.31;99821.78;4941431;29;20035;-72
2021/08/26 01:56:54;;;;;;;4.70;3.20;;;;;;;23.36;65.77;99820.97;4941212;29;20482;-71
2021/08/26 01:59:22;;;;;;;3.28;2.97;;;;;;;23.37;65.11;99809.16;4941165;29;20032;-71
2021/08/26 02:01:47;;;;;;;3.25;2.95;;;;;;;23.38;64.90;99812.78;4940833;29;20031;-72
2021/08/26 02:04:13;;;;;;;3.20;2.90;;;;;;;23.27;65.29;99801.81;4940874;29;20032;-72
2021/08/26 02:06:38;;;;;;;3.38;3.08;;;;;;;23.27;65.18;99796.13;4941003;29;20038;-72
2021/08/26 02:09:04;;;;;;;3.13;2.90;;;;;;;23.25;65.13;99792.97;4940665;29;20481;-73
2021/08/26 02:11:29;;;;;;;2.90;2.70;;;;;;;23.23;65.20;99784.13;4939209;29;20036;-72
2021/08/26 02:13:55;;;;;;;3.35;3.05;;;;;;;23.29;64.92;99787.97;4941046;29;20386;-74
2021/08/26 02:16:24;;;;;;;5.13;3.20;;;;;;;23.22;64.80;99789.03;4940909;29;20035;-74
2021/08/26 02:18:49;;;;;;;5.93;3.08;;;;;;;23.21;65.08;99789.47;4950720;28;20394;-72
2021/08/26 02:21:15;;;;;;;3.33;3.08;;;;;;;23.25;65.64;99776.75;4959981;28;20031;-72
2021/08/26 02:23:40;;;;;;;4.20;2.60;;;;;;;23.20;64.71;99782.22;4959936;28;20525;-74
2021/08/26 02:26:06;;;;;;;3.30;3.00;;;;;;;23.09;65.43;99782.59;4959536;28;20401;-74
2021/08/26 02:28:31;;;;;;;3.17;2.90;;;;;;;23.06;65.70;99774.19;4959977;28;20031;-73
2021/08/26 02:30:57;;;;;;;4.80;2.97;;;;;;;22.97;66.09;99772.88;4959770;28;20398;-73
2021/08/26 02:33:23;;;;;;;3.55;3.20;;;;;;;22.97;66.27;99767.19;4959732;28;20089;-72
2021/08/26 02:35:48;;;;;;;3.72;2.90;;;;;;;22.93;66.37;99768.56;4959931;28;20027;-72
2021/08/26 02:38:14;;;;;;;3.92;3.00;;;;;;;22.90;66.39;99777.97;4959258;28;20121;-74
2021/08/26 02:40:39;;;;;;;4.38;3.03;;;;;;;22.89;66.87;99780.00;4959362;28;20041;-74
2021/08/26 02:43:05;;;;;;;3.55;3.25;;;;;;;22.71;67.15;99774.91;4959519;28;20031;-72
2021/08/26 02:45:31;;;;;;;2.88;2.63;;;;;;;22.61;67.28;99784.56;4959552;28;20125;-75
2021/08/26 02:47:56;;;;;;;4.05;3.35;;;;;;;22.61;67.23;99795.13;4959470;28;20485;-72
2021/08/26 02:50:22;;;;;;;3.17;2.85;;;;;;;22.53;67.67;99803.06;4959310;28;20042;-73
2021/08/26 02:52:47;;;;;;;30.00;26.23;;;;;;;22.62;67.22;99802.38;4959523;28;20034;-72
2021/08/26 02:55:13;;;;;;;22.25;19.23;;;;;;;22.56;67.53;99796.47;4959379;28;20393;-72
2021/08/26 02:57:38;;;;;;;23.42;20.92;;;;;;;22.58;67.27;99796.03;4959357;28;20034;-72
2021/08/26 03:00:06;;;;;;;22.95;20.55;;;;;;;22.54;67.50;99806.69;4959416;28;20447;-71
2021/08/26 03:02:31;;;;;;;19.30;17.23;;;;;;;22.59;67.49;99803.31;4958934;28;20037;-71
2021/08/26 03:04:57;;;;;;;18.33;16.42;;;;;;;22.63;67.29;99804.75;4958873;28;20118;-72
2021/08/26 03:07:22;;;;;;;12.52;10.95;;;;;;;22.66;67.76;99801.00;4959109;28;20155;-73
2021/08/26 03:09:48;;;;;;;7.88;6.85;;;;;;;22.63;67.55;99790.56;4958773;28;20030;-73
2021/08/26 03:12:14;;;;;;;5.80;5.28;;;;;;;22.71;67.69;99789.09;4959007;28;20050;-72
2021/08/26 03:14:39;;;;;;;5.47;4.72;;;;;;;22.71;67.62;99796.81;4959270;28;20355;-73
2021/08/26 03:17:07;;;;;;;3.72;3.45;;;;;;;22.70;67.64;99796.03;4958910;28;20517;-73
2021/08/26 03:19:33;;;;;;;3.75;3.10;;;;;;;22.72;67.47;99804.84;4958109;28;20436;-74
2021/08/26 03:21:58;;;;;;;4.05;3.30;;;;;;;22.74;67.64;99816.56;4958371;28;20030;-72
2021/08/26 03:24:24;;;;;;;7.10;5.43;;;;;;;22.96;67.22;99816.66;4958677;28;20085;-71
2021/08/26 03:26:50;;;;;;;4.00;3.47;;;;;;;22.80;67.86;99825.28;4958752;28;20373;-71
2021/08/26 03:29:15;;;;;;;3.63;3.33;;;;;;;22.75;67.53;99834.38;4958710;28;20034;-72
2021/08/26 03:31:41;;;;;;;4.15;3.75;;;;;;;22.77;67.87;99837.53;4958611;28;20034;-71
2021/08/26 03:34:06;;;;;;;5.80;3.63;;;;;;;22.84;68.24;99837.28;4958608;28;20031;-74
2021/08/26 03:36:32;;;;;;;6.18;4.13;;;;;;;22.93;67.84;99828.91;4942441;28;20554;-74
2021/08/26 03:39:00;;;;;;;7.55;4.22;;;;;;;23.00;67.40;99828.66;4958976;28;20034;-71
2021/08/26 03:41:25;;;;;;;5.43;3.78;;;;;;;22.83;68.24;99830.03;4958446;28;20031;-73
2021/08/26 03:43:51;;;;;;;4.25;3.85;;;;;;;22.82;68.08;99817.09;4958456;28;20046;-72
2021/08/26 03:46:20;;;;;;;4.75;3.60;;;;;;;22.72;67.61;99807.69;4958418;28;20023;-73
2021/08/26 03:48:49;;;;;;;3.60;3.30;;;;;;;22.72;67.68;99821.09;4958336;28;20481;-73
2021/08/26 03:51:14;;;;;;;5.20;3.85;;;;;;;22.58;68.03;99818.69;4958251;28;20033;-73
2021/08/26 03:53:42;;;;;;;4.65;4.13;;;;;;;22.57;67.58;99809.41;4958237;28;20125;-72
2021/08/26 03:56:08;;;;;;;7.47;3.50;;;;;;;22.58;67.93;99807.34;4958270;28;20035;-74
2021/08/26 03:58:34;;;;;;;4.05;3.67;;;;;;;22.59;67.92;99806.13;4958572;28;20089;-73
2021/08/26 04:01:02;;;;;;;3.95;3.65;;;;;;;22.59;67.11;99791.97;4958114;28;20027;-73
2021/08/26 04:03:28;;;;;;;4.97;3.85;;;;;;;22.58;66.91;99784.69;4958384;28;20031;-72
2021/08/26 04:05:53;;;;;;;4.82;4.22;;;;;;;22.62;67.14;99782.53;4958340;28;20488;-73
2021/08/26 04:08:19;;;;;;;4.90;4.35;;;;;;;22.51;67.05;99793.41;4958015;28;20045;-72
2021/08/26 04:10:44;;;;;;;5.00;3.97;;;;;;;22.46;67.58;99809.75;4957975;28;20026;-72
2021/08/26 04:13:10;;;;;;;4.80;4.30;;;;;;;22.48;68.06;99810.09;4958200;28;20031;-72
2021/08/26 04:15:35;;;;;;;4.53;4.13;;;;;;;22.60;67.74;99816.22;4958165;28;20125;-74
2021/08/26 04:18:01;;;;;;;5.50;3.95;;;;;;;22.80;67.44;99825.28;4957407;28;20054;-73
2021/08/26 04:20:29;;;;;;;7.32;4.13;;;;;;;22.95;67.55;99811.44;4957743;28;20110;-73
2021/08/26 04:22:59;;;;;;;7.57;4.40;;;;;;;22.86;66.82;99817.78;4957943;28;20038;-73
2021/08/26 04:25:24;;;;;;;5.38;4.38;;;;;;;22.82;67.36;99816.31;4957146;28;20022;-74
2021/08/26 04:27:50;;;;;;;4.78;4.28;;;;;;;22.79;67.54;99812.34;4957668;28;20061;-72
2021/08/26 04:30:16;;;;;;;4.97;3.90;;;;;;;22.77;67.58;99800.66;4957517;28;20027;-72
2021/08/26 04:32:41;;;;;;;5.82;4.20;;;;;;;22.71;67.66;99811.00;4957316;28;20042;-72
2021/08/26 04:35:07;;;;;;;4.50;3.70;;;;;;;22.44;65.16;99803.75;4957110;28;20023;-77
2021/08/26 04:37:35;;;;;;;3.58;3.28;;;;;;;22.46;65.65;99801.25;4957482;28;20030;-78
2021/08/26 04:40:00;;;;;;;6.13;4.03;;;;;;;22.56;65.95;99799.31;4957461;28;20117;-78
2021/08/26 04:42:26;;;;;;;3.83;3.42;;;;;;;22.61;65.78;99812.13;4957771;28;20510;-75
2021/08/26 04:44:51;;;;;;;4.15;3.85;;;;;;;22.63;65.69;99806.78;4957597;28;20030;-75
2021/08/26 04:47:17;;;;;;;5.20;3.60;;;;;;;22.71;65.28;99802.50;4958048;28;20109;-75
2021/08/26 04:49:44;;;;;;;5.00;4.35;;;;;;;22.83;64.63;99807.34;4957578;28;20430;-75
2021/08/26 04:52:12;;;;;;;3.58;3.28;;;;;;;22.88;64.36;99795.44;4957104;28;20027;-75
2021/08/26 04:54:37;;;;;;;4.93;3.90;;;;;;;22.87;64.40;99802.34;4957105;28;20023;-74
2021/08/26 04:57:03;;;;;;;4.32;3.30;;;;;;;22.89;64.58;99799.88;4957061;28;20078;-74
2021/08/26 04:59:31;;;;;;;4.20;3.65;;;;;;;22.89;64.52;99799.88;4957828;28;20054;-74
2021/08/26 05:01:56;;;;;;;6.22;3.60;;;;;;;22.90;64.87;99795.00;4956920;28;20031;-76
2021/08/26 05:04:27;;;;;;;6.20;3.63;;;;;;;22.91;65.68;99788.09;4957203;28;20033;-75
2021/08/26 05:06:53;;;;;;;3.63;3.30;;;;;;;22.95;65.15;99789.53;4956999;28;20035;-75
2021/08/26 05:09:19;;;;;;;5.40;3.10;;;;;;;22.96;64.78;99776.94;4957010;28;20105;-74
2021/08/26 05:11:45;;;;;;;5.63;3.95;;;;;;;23.05;64.49;99790.41;4957256;28;20489;-74
2021/08/26 05:14:12;;;;;;;3.45;3.08;;;;;;;23.08;64.29;99780.22;4956916;28;20030;-73
2021/08/26 05:16:37;;;;;;;3.85;3.45;;;;;;;23.13;64.75;99785.31;4957055;28;20462;-73
2021/08/26 05:19:03;;;;;;;3.47;3.17;;;;;;;23.17;64.26;99794.47;4956831;28;20129;-73
2021/08/26 05:21:31;;;;;;;3.90;3.50;;;;;;;23.24;63.82;99791.41;4957127;28;20030;-73
2021/08/26 05:23:56;;;;;;;5.05;3.55;;;;;;;23.28;64.43;99769.38;4957093;28;20097;-73
2021/08/26 05:26:22;;;;;;;3.78;3.30;;;;;;;23.27;64.08;99768.53;4957354;28;20266;-73
2021/08/26 05:28:51;;;;;;;5.15;3.80;;;;;;;23.32;63.76;99770.00;4957181;28;20501;-74
2021/08/26 05:31:17;;;;;;;3.58;3.28;;;;;;;23.48;63.72;99764.13;4957271;28;20031;-73
2021/08/26 05:33:42;;;;;;;4.78;3.25;;;;;;;23.52;63.27;99766.88;4956982;28;20066;-73
2021/08/26 05:36:08;;;;;;;3.35;3.03;;;;;;;23.58;63.00;99764.22;4956903;28;20065;-73
2021/08/26 05:38:33;;;;;;;6.15;3.50;;;;;;;23.64;62.57;99768.06;4956853;28;20059;-73
2021/08/26 05:40:59;;;;;;;5.10;3.70;;;;;;;23.73;62.68;99765.31;4956917;28;20023;-73
2021/08/26 05:43:24;;;;;;;4.63;3.83;;;;;;;23.86;61.85;99766.00;4956877;28;20034;-72
2021/08/26 05:45:51;;;;;;;5.43;3.22;;;;;;;23.96;61.73;99759.13;4959340;28;20030;-74
2021/08/26 05:48:16;;;;;;;4.40;3.42;;;;;;;24.12;60.71;99758.09;4960992;28;20382;-74
2021/08/26 05:50:42;;;;;;;4.03;3.63;;;;;;;24.22;59.94;99750.41;4960674;28;20042;-74
2021/08/26 05:53:08;;;;;;;4.20;3.10;;;;;;;24.47;60.41;99750.22;4960443;28;20035;-73
2021/08/26 05:55:33;;;;;;;6.45;3.33;;;;;;;24.64;58.90;99767.81;4960557;28;20038;-73
2021/08/26 05:57:59;;;;;;;3.90;2.72;;;;;;;24.76;58.09;99771.78;4960213;28;20537;-73
2021/08/26 06:00:24;;;;;;;5.63;3.58;;;;;;;24.78;58.66;99780.66;4960159;28;20031;-74
2021/08/26 06:02:50;;;;;;;3.20;2.90;;;;;;;24.85;58.51;99774.66;4960136;28;20037;-74
2021/08/26 06:05:19;;;;;;;3.80;3.50;;;;;;;24.85;58.61;99780.34;4960571;28;20121;-73
2021/08/26 06:07:45;;;;;;;4.10;3.70;;;;;;;24.79;59.32;99762.34;4960063;28;20038;-74
2021/08/26 06:10:11;;;;;;;4.30;3.65;;;;;;;24.77;59.40;99756.34;4960606;28;20027;-73
2021/08/26 06:12:41;;;;;;;6.53;5.82;;;;;;;24.80;59.22;99761.06;4960504;28;20481;-74
2021/08/26 06:15:09;;;;;;;5.95;5.30;;;;;;;25.02;58.92;99756.03;4960832;28;20041;-74
2021/08/26 06:17:35;;;;;;;4.28;3.70;;;;;;;25.25;58.00;99768.13;4977368;28;20031;-74
2021/08/26 06:20:06;;;;;;;4.45;3.80;;;;;;;25.34;57.03;99759.56;4959664;28;20034;-73
2021/08/26 06:22:31;;;;;;;6.55;3.47;;;;;;;25.43;56.83;99762.41;4977207;28;20058;-74
2021/08/26 06:24:59;;;;;;;2.90;2.70;;;;;;;25.71;56.21;99742.44;4960219;28;20085;-73
2021/08/26 06:27:25;;;;;;;3.95;3.10;;;;;;;25.88;55.43;99729.44;4977078;28;20062;-74
2021/08/26 06:29:50;;;;;;;8.50;3.58;;;;;;;26.09;54.81;99711.31;4959822;28;20058;-73
2021/08/26 06:32:17;;;;;;;3.72;3.15;;;;;;;26.17;54.04;99702.44;4959543;28;20031;-75
2021/08/26 06:34:45;;;;;;;3.00;2.80;;;;;;;26.38;53.36;99692.84;4959313;28;20049;-75
2021/08/26 06:37:10;;;;;;;3.13;2.90;;;;;;;27.01;52.64;99688.00;4959479;28;20093;-74
2021/08/26 06:39:36;;;;;;;3.42;3.13;;;;;;;26.99;51.82;99695.47;4959669;28;20026;-75
2021/08/26 06:42:02;;;;;;;3.20;3.00;;;;;;;26.92;52.32;99708.03;4959449;28;20470;-75
2021/08/26 06:44:27;;;;;;;3.58;3.00;;;;;;;26.74;52.58;99722.41;4959766;28;20030;-76
2021/08/26 06:46:53;;;;;;;4.13;2.33;;;;;;;26.75;53.11;99721.97;4959299;28;20492;-74
2021/08/26 06:49:18;;;;;;;3.47;2.78;;;;;;;26.82;52.96;99730.16;4959066;28;20031;-76
2021/08/26 06:51:45;;;;;;;6.90;2.90;;;;;;;26.89;52.59;99726.91;4959358;28;20034;-75
2021/08/26 06:54:10;;;;;;;4.25;2.65;;;;;;;27.03;52.28;99718.91;4959490;28;20030;-75
2021/08/26 06:56:36;;;;;;;4.40;3.03;;;;;;;27.86;50.09;99716.13;4958910;28;20481;-75
2021/08/26 06:59:02;;;;;;;6.00;2.72;;;;;;;29.06;47.10;99729.66;4959660;28;20394;-76
2021/08/26 07:01:27;;;;;;;2.60;2.40;;;;;;;29.11;46.57;99714.63;4958958;28;20497;-75
2021/08/26 07:03:55;;;;;;;4.40;2.22;;;;;;;29.20;46.16;99729.56;4959936;28;20038;-74
2021/08/26 07:06:20;;;;;;;5.47;2.67;;;;;;;28.83;46.74;99717.09;4959043;28;20097;-75
2021/08/26 07:08:46;;;;;;;4.50;2.30;;;;;;;28.54;48.13;99713.06;4959191;28;20030;-75
2021/08/26 07:11:13;;;;;;;2.30;2.20;;;;;;;28.04;50.11;99715.91;4959528;28;20086;-74
2021/08/26 07:13:42;;;;;;;5.65;2.65;;;;;;;27.66;49.96;99720.44;4958917;28;20035;-75
2021/08/26 07:16:07;;;;;;;3.05;2.67;;;;;;;27.83;49.74;99719.97;4958981;28;20442;-75
2021/08/26 07:18:35;;;;;;;2.97;2.35;;;;;;;28.23;49.04;99729.97;4958142;28;20050;-74
2021/08/26 07:21:01;;;;;;;4.95;2.95;;;;;;;28.61;47.28;99732.69;4958503;28;20027;-75
2021/08/26 07:23:29;;;;;;;4.65;2.75;;;;;;;29.00;46.60;99746.75;4958623;28;20153;-74
2021/08/26 07:25:54;;;;;;;2.45;2.25;;;;;;;28.95;47.08;99756.84;4959091;28;20081;-74
2021/08/26 07:28:20;;;;;;;2.55;2.35;;;;;;;29.51;45.31;99776.81;4958256;28;20386;-75
2021/08/26 07:30:46;;;;;;;3.65;2.65;;;;;;;29.33;45.50;99777.91;4958763;28;20031;-71
2021/08/26 07:33:11;;;;;;;3.03;2.40;;;;;;;29.97;44.93;99768.19;4958053;28;20449;-72
2021/08/26 07:35:37;;;;;;;2.97;2.65;;;;;;;31.35;41.58;99771.00;4958326;28;20038;-71
2021/08/26 07:38:02;;;;;;;4.35;3.53;;;;;;;30.69;42.44;99769.31;4958707;28;20039;-77
2021/08/26 07:40:28;;;;;;;4.05;2.80;;;;;;;30.46;43.44;99774.88;4958188;28;20557;-75
2021/08/26 07:42:54;;;;;;;3.45;3.00;;;;;;;30.45;43.05;99766.78;4958997;28;20454;-77
2021/08/26 07:45:19;;;;;;;3.42;2.90;;;;;;;29.46;45.36;99769.72;4958217;28;20031;-77
2021/08/26 07:47:45;;;;;;;3.28;3.00;;;;;;;29.80;44.52;99775.06;4957918;28;20529;-74
2021/08/26 07:50:11;;;;;;;4.65;2.33;;;;;;;29.22;45.56;99769.16;4958253;28;20390;-74
2021/08/26 07:52:37;;;;;;;3.75;2.70;;;;;;;29.59;45.30;99769.38;4958456;28;20066;-76
2021/08/26 07:55:03;;;;;;;2.83;2.50;;;;;;;29.92;44.79;99773.88;4957831;28;20469;-74
2021/08/26 07:57:30;;;;;;;2.95;2.75;;;;;;;29.93;44.48;99778.31;4957799;28;20030;-77
2021/08/26 07:59:56;;;;;;;6.07;3.50;;;;;;;29.83;44.65;99776.91;4957864;28;20413;-75
2021/08/26 08:02:22;;;;;;;4.53;3.10;;;;;;;29.29;45.57;99782.25;4957738;28;20038;-75
2021/08/26 08:04:47;;;;;;;4.32;2.63;;;;;;;29.40;45.91;99782.41;4957574;28;20082;-75
2021/08/26 08:07:13;;;;;;;2.90;2.70;;;;;;;29.19;46.38;99785.31;4958009;28;20074;-74
2021/08/26 08:09:38;;;;;;;3.47;3.00;;;;;;;28.84;47.21;99775.94;4956549;28;20094;-77
2021/08/26 08:12:04;;;;;;;3.35;2.85;;;;;;;28.17;48.85;99785.00;4957442;28;20038;-74
2021/08/26 08:14:30;;;;;;;3.15;2.85;;;;;;;28.04;49.49;99786.59;4957337;28;20035;-75
2021/08/26 08:16:59;;;;;;;5.22;3.65;;;;;;;28.15;49.50;99796.16;4975238;28;20394;-74
2021/08/26 08:19:25;;;;;;;3.85;3.53;;;;;;;28.19;49.26;99785.31;4956809;28;20098;-75
2021/08/26 08:21:51;;;;;;;4.75;3.88;;;;;;;27.99;49.43;99793.78;4957342;28;20030;-74
2021/08/26 08:24:16;;;;;;;5.85;3.63;;;;;;;27.80;50.30;99793.19;4957101;28;20042;-76
2021/08/26 08:26:42;;;;;;;6.40;3.35;;;;;;;28.12;49.17;99787.78;4957808;28;20081;-73
2021/08/26 08:29:07;;;;;;;5.18;3.53;;;;;;;28.23;49.16;99790.84;4957685;28;20039;-75
2021/08/26 08:31:33;;;;;;;4.40;4.00;;;;;;;28.40;48.87;99782.56;4957636;28;20038;-74
2021/08/26 08:34:00;;;;;;;9.73;4.43;;;;;;;28.91;47.02;99786.94;4957519;28;20037;-74
2021/08/26 08:36:26;;;;;;;5.25;4.20;;;;;;;29.27;46.17;99790.59;4957670;28;20142;-75
2021/08/26 08:38:52;;;;;;;5.53;3.75;;;;;;;29.88;45.09;99779.03;4957454;28;20038;-76
2021/08/26 08:41:19;;;;;;;4.07;3.72;;;;;;;30.12;44.23;99781.66;4957755;28;20023;-77
2021/08/26 08:43:45;;;;;;;5.88;4.03;;;;;;;30.25;43.58;99782.81;4957125;28;20030;-77
2021/08/26 08:46:11;;;;;;;6.82;3.78;;;;;;;30.83;42.66;99784.81;4957362;28;20093;-73
2021/08/26 08:48:41;;;;;;;4.20;3.60;;;;;;;30.85;42.75;99776.50;4957509;28;20382;-75
2021/08/26 08:51:08;;;;;;;3.97;3.33;;;;;;;31.63;40.68;99776.81;4956982;28;20027;-74
2021/08/26 08:53:34;;;;;;;5.72;4.13;;;;;;;31.94;39.85;99780.84;4956880;28;20478;-75
2021/08/26 08:56:03;;;;;;;6.05;4.03;;;;;;;32.60;39.01;99773.56;4957385;28;20033;-75
2021/08/26 08:58:29;;;;;;;5.90;4.28;;;;;;;32.22;39.44;99770.13;4957248;28;20035;-75
2021/08/26 09:00:54;;;;;;;6.05;4.32;;;;;;;32.39;38.95;99772.28;4957069;28;20034;-74
2021/08/26 09:03:20;;;;;;;4.53;3.95;;;;;;;32.66;38.48;99779.31;4957090;28;20129;-74
2021/08/26 09:05:57;;;;;;;3.65;3.35;;;;;;;33.58;37.38;99777.97;4957054;28;20030;-76
2021/08/26 09:08:25;;;;;;;4.93;3.58;;;;;;;33.99;36.23;99785.09;4957256;28;20382;-78
2021/08/26 09:10:54;;;;;;;4.28;3.30;;;;;;;34.22;36.23;99779.91;4957097;28;20085;-74
2021/08/26 09:13:33;;;;;;;4.35;3.47;;;;;;;34.90;34.86;99772.19;4957454;28;20035;-75
2021/08/26 09:16:00;;;;;;;4.90;3.88;;;;;;;35.63;32.93;99768.41;4956847;28;20118;-76
2021/08/26 09:18:26;;;;;;;3.70;3.38;;;;;;;36.26;31.84;99781.41;4974367;28;20054;-74
2021/08/26 09:20:59;;;;;;;4.40;4.00;;;;;;;36.59;31.64;99785.88;4959772;28;20034;-75
2021/08/26 09:23:28;;;;;;;4.35;3.25;;;;;;;37.02;31.01;99778.25;4960908;28;20532;-76
2021/08/26 09:26:13;;;;;;;5.40;3.70;;;;;;;35.67;33.11;99766.00;4960431;28;20070;-74
2021/08/26 09:28:38;;;;;;;5.47;3.47;;;;;;;36.00;32.68;99770.53;4960900;28;20394;-76
2021/08/26 09:31:31;;;;;;;5.35;4.57;;;;;;;34.79;34.02;99764.44;4960504;28;20035;-74
2021/08/26 09:34:15;;;;;;;6.78;4.93;;;;;;;33.11;37.47;99765.56;4956352;28;20504;-74
2021/08/26 09:36:47;;;;;;;8.50;6.38;;;;;;;32.44;39.31;99765.69;4960308;28;20054;-75
2021/08/26 09:39:15;;;;;;;4.90;4.20;;;;;;;31.94;40.03;99749.97;4960282;28;20089;-71
2021/08/26 09:41:52;;;;;;;4.88;3.45;;;;;;;31.63;40.26;99762.44;4960265;28;20046;-73
2021/08/26 09:44:27;;;;;;;4.43;4.00;;;;;;;31.26;41.67;99754.75;4960287;28;20067;-73
2021/08/26 09:46:55;;;;;;;6.63;3.80;;;;;;;31.19;41.79;99755.22;4960662;28;20125;-73
2021/08/26 09:49:24;;;;;;;5.85;4.07;;;;;;;31.02;42.49;99763.78;4960267;28;20034;-72
2021/08/26 09:52:14;;;;;;;7.63;4.00;;;;;;;31.16;42.50;99762.03;4960828;28;20026;-72
2021/08/26 09:54:42;;;;;;;6.68;3.95;;;;;;;30.88;43.11;99761.88;4960372;28;20035;-72
2021/08/26 09:57:25;;;;;;;9.05;3.75;;;;;;;30.58;44.13;99755.66;4959939;28;20027;-73
2021/08/26 09:59:54;;;;;;;;;;;;;;;30.80;43.67;99751.41;4960727;28;20439;-71
2021/08/26 10:02:21;;;;;;;6.50;3.80;;;;;;;30.78;44.05;99749.78;4960636;28;19914;-72
2021/08/26 10:04:48;;;;;;;6.70;4.32;;;;;;;30.75;44.04;99739.34;4960683;28;20027;-72
2021/08/26 10:07:15;;;;;;;4.45;3.78;;;;;;;31.75;41.19;99738.19;4959893;28;20094;-74
2021/08/26 10:09:42;;;;;;;5.18;3.78;;;;;;;31.86;40.85;99737.44;4959874;28;20056;-71
2021/08/26 10:12:12;;;;;;;4.03;3.35;;;;;;;31.96;40.83;99740.81;4960399;28;20030;-72
2021/08/26 10:14:39;;;;;;;6.93;3.97;;;;;;;33.11;38.43;99739.63;4960104;28;20031;-71
2021/08/26 10:17:05;;;;;;;4.63;3.33;;;;;;;34.15;37.00;99743.75;4960035;28;20262;-73
2021/08/26 10:19:31;;;;;;;7.18;3.95;;;;;;;34.67;35.40;99736.97;4959263;28;20157;-73
2021/08/26 10:21:58;;;;;;;6.47;3.85;;;;;;;35.22;34.08;99734.00;4960027;28;20051;-74
2021/08/26 10:24:24;;;;;;;4.72;3.88;;;;;;;34.35;35.52;99728.84;4959879;28;20023;-73
2021/08/26 10:27:03;;;;;;;4.85;3.20;;;;;;;33.83;36.43;99729.81;4960084;28;20045;-73
2021/08/26 10:29:32;;;;;;;7.22;3.75;;;;;;;33.87;36.74;99724.53;4959978;28;20022;-71
2021/08/26 10:32:00;;;;;;;5.43;3.08;;;;;;;34.21;36.06;99724.28;4959254;28;20035;-72
2021/08/26 10:34:29;;;;;;;4.78;3.63;;;;;;;33.95;36.71;99724.00;4959692;28;20037;-72
2021/08/26 10:36:54;;;;;;;5.93;3.28;;;;;;;34.24;35.96;99723.19;4960129;28;20429;-71
2021/08/26 10:39:34;;;;;;;3.33;2.45;;;;;;;34.60;34.29;99714.47;4959914;28;20058;-70
2021/08/26 10:42:39;;;;;;;2.88;2.42;;;;;;;34.60;34.22;99723.91;4959423;28;20037;-70
2021/08/26 10:45:13;;;;;;;3.55;2.47;;;;;;;34.72;34.05;99727.47;4921025;28;20093;-71
2021/08/26 10:47:47;;;;;;;3.15;2.53;;;;;;;33.57;36.13;99715.06;4959996;28;20479;-71
2021/08/26 10:50:26;;;;;;;3.08;2.20;;;;;;;34.37;35.19;99720.47;4959308;28;20042;-71
2021/08/26 10:53:05;;;;;;;2.80;2.03;;;;;;;34.84;34.06;99705.03;4959894;28;20035;-72
2021/08/26 10:55:39;;;;;;;2.58;2.38;;;;;;;34.64;34.38;99724.41;4959484;28;20117;-71
2021/08/26 10:58:23;;;;;;;3.60;2.40;;;;;;;35.11;34.04;99720.47;4977163;28;20039;-71
2021/08/26 11:01:00;;;;;;;3.25;2.92;;;;;;;34.88;33.25;99729.38;4959621;28;20477;-72
2021/08/26 11:03:34;;;;;;;3.85;2.60;;;;;;;34.08;35.17;99719.13;4959083;28;20126;-72
2021/08/26 11:06:24;;;;;;;2.70;2.28;;;;;;;34.62;35.03;99726.25;4959052;28;20031;-72
2021/08/26 11:08:59;;;;;;;3.22;2.92;;;;;;;35.19;34.03;99718.50;4959034;28;20068;-72
2021/08/26 11:11:27;;;;;;;3.88;2.90;;;;;;;35.04;34.01;99716.06;4958821;28;20022;-73
2021/08/26 11:13:53;;;;;;;3.10;2.78;;;;;;;35.18;32.21;99716.97;4959703;28;20654;-71
2021/08/26 11:16:25;;;;;;;4.32;2.58;;;;;;;35.39;32.65;99717.97;4958424;28;20035;-72
2021/08/26 11:18:52;;;;;;;3.17;2.33;;;;;;;35.46;33.48;99718.72;4958955;28;20078;-72
2021/08/26 11:21:46;;;;;;;3.85;2.33;;;;;;;34.95;34.85;99736.69;4959191;28;20045;-72
2021/08/26 11:24:22;;;;;;;2.72;2.38;;;;;;;35.76;32.94;99733.78;4958951;28;20023;-72
2021/08/26 11:26:56;;;;;;;2.13;2.00;;;;;;;35.27;33.71;99730.25;4959200;28;20374;-73
2021/08/26 11:29:22;;;;;;;2.05;1.85;;;;;;;35.02;34.79;99720.84;4958644;28;20046;-71
2021/08/26 11:31:53;;;;;;;2.30;2.13;;;;;;;34.68;35.49;99718.34;4958586;28;20031;-72
2021/08/26 11:34:37;;;;;;;3.37;2.13;;;;;;;33.69;37.42;99725.19;4958670;28;20023;-72
2021/08/26 11:37:19;;;;;;;3.28;2.25;;;;;;;33.90;37.37;99722.69;4958422;28;20765;-72
2021/08/26 11:39:46;;;;;;;2.40;2.10;;;;;;;34.01;36.59;99731.28;4958947;28;20052;-72